createdAt,value
2018-09-14T00:01:34.864Z,86.94
2018-09-14T00:04:01.848Z,86.78
2018-09-14T00:06:28.731Z,87.22
2018-09-14T00:08:55.627Z,87.54
2018-09-14T00:11:22.485Z,87.93
2018-09-14T00:13:49.457Z,87.56
2018-09-14T00:16:16.384Z,87.53
2018-09-14T00:18:43.348Z,87.74
2018-09-14T00:21:10.199Z,86.71
2018-09-14T00:23:37.205Z,87.83
2018-09-14T00:26:04.123Z,87.85
2018-09-14T00:28:32.011Z,87.84
2018-09-14T00:30:58.951Z,87.42
2018-09-14T00:33:25.915Z,86.16
2018-09-14T00:35:52.859Z,88.07
2018-09-14T00:38:19.909Z,87.33
2018-09-14T00:40:46.796Z,87.83
2018-09-14T00:43:14.023Z,87.97
2018-09-14T00:45:40.895Z,88.88
2018-09-14T00:48:07.852Z,89.28
2018-09-14T00:50:34.816Z,89.56
2018-09-14T00:53:01.783Z,91.05
2018-09-14T00:55:28.683Z,91.81
2018-09-14T00:57:55.596Z,91.64
2018-09-14T01:00:22.576Z,92.96
2018-09-14T01:02:49.498Z,92.42
2018-09-14T01:05:16.451Z,92.83
2018-09-14T01:07:43.443Z,93.27
2018-09-14T01:10:10.384Z,93.59
2018-09-14T01:12:37.341Z,94.14
2018-09-14T01:15:04.299Z,94.07
2018-09-14T01:17:31.149Z,93.69
2018-09-14T01:19:58.097Z,94.38
2018-09-14T01:22:25.120Z,93.66
2018-09-14T01:24:52.127Z,93.65
2018-09-14T01:27:18.970Z,94.23
2018-09-14T01:29:45.956Z,93.59
2018-09-14T01:32:12.913Z,93.68
2018-09-14T01:34:39.854Z,93.96
2018-09-14T01:37:06.796Z,93.09
2018-09-14T01:39:33.659Z,94.11
2018-09-14T01:42:00.632Z,92.93
2018-09-14T01:44:27.559Z,93.30
2018-09-14T01:46:54.423Z,93.65
2018-09-14T01:49:21.395Z,94.34
2018-09-14T01:51:48.270Z,94.17
2018-09-14T01:54:15.191Z,94.88
2018-09-14T01:56:42.153Z,94.11
2018-09-14T01:59:09.114Z,94.94
2018-09-14T02:01:36.100Z,94.46
2018-09-14T02:04:03.050Z,94.48
2018-09-14T02:06:29.984Z,94.01
2018-09-14T02:08:56.953Z,93.60
2018-09-14T02:11:23.904Z,94.25
2018-09-14T02:13:50.867Z,93.64
2018-09-14T02:16:17.811Z,94.73
2018-09-14T02:18:44.779Z,94.15
2018-09-14T02:21:11.719Z,94.62
2018-09-14T02:23:38.610Z,93.77
2018-09-14T02:26:05.767Z,94.29
2018-09-14T02:28:32.732Z,94.12
2018-09-14T02:30:59.672Z,93.86
2018-09-14T02:33:26.536Z,93.59
2018-09-14T02:35:53.527Z,92.36
2018-09-14T02:38:20.423Z,93.34
2018-09-14T02:40:47.384Z,92.63
2018-09-14T02:43:14.367Z,92.32
2018-09-14T02:45:41.397Z,92.35
2018-09-14T02:48:08.270Z,92.91
2018-09-14T02:50:35.216Z,92.54
2018-09-14T02:53:02.173Z,91.93
2018-09-14T02:55:29.144Z,91.08
2018-09-14T02:57:56.088Z,89.36
2018-09-14T03:00:23.055Z,90.33
2018-09-14T03:02:50.016Z,89.36
2018-09-14T03:05:16.955Z,89.28
2018-09-14T03:07:44.605Z,89.78
2018-09-14T03:10:11.503Z,89.57
2018-09-14T03:12:38.447Z,89.56
2018-09-14T03:15:05.489Z,90.00
2018-09-14T03:17:33.388Z,89.28
2018-09-14T03:20:00.354Z,89.70
2018-09-14T03:22:27.299Z,89.92
2018-09-14T03:24:54.254Z,90.57
2018-09-14T03:27:21.231Z,89.69
2018-09-14T03:29:48.212Z,90.41
2018-09-14T03:32:15.297Z,90.59
2018-09-14T03:34:42.195Z,89.56
2018-09-14T03:37:09.173Z,89.52
2018-09-14T03:39:36.109Z,90.10
2018-09-14T03:42:04.584Z,90.19
2018-09-14T03:44:31.463Z,90.88
2018-09-14T03:46:58.404Z,91.24
2018-09-14T03:49:25.404Z,90.90
2018-09-14T03:51:52.353Z,90.71
2018-09-14T03:54:19.345Z,91.31
2018-09-14T03:56:46.303Z,91.28
2018-09-14T03:59:13.208Z,90.33
2018-09-14T04:01:40.079Z,90.46
2018-09-14T04:04:07.197Z,90.71
2018-09-14T04:06:34.097Z,91.05
2018-09-14T04:09:01.173Z,90.39
2018-09-14T04:11:28.091Z,90.58
2018-09-14T04:13:55.062Z,91.03
2018-09-14T04:16:22.015Z,91.51
2018-09-14T04:18:53.864Z,90.95
2018-09-14T04:21:20.725Z,91.41
2018-09-14T04:23:47.709Z,90.39
2018-09-14T04:26:14.703Z,89.88
2018-09-14T04:28:41.610Z,90.20
2018-09-14T04:31:09.063Z,90.54
2018-09-14T04:33:35.972Z,90.74
2018-09-14T04:36:02.880Z,90.38
2018-09-14T04:38:29.929Z,90.56
2018-09-14T04:40:56.803Z,89.43
2018-09-14T04:43:24.715Z,89.98
2018-09-14T04:45:52.220Z,90.02
2018-09-14T04:48:19.133Z,89.16
2018-09-14T04:50:46.066Z,90.10
2018-09-14T04:53:13.073Z,90.09
2018-09-14T04:55:39.998Z,89.20
2018-09-14T04:58:06.939Z,89.50
2018-09-14T05:00:33.916Z,90.02
2018-09-14T05:03:00.910Z,89.45
2018-09-14T05:05:28.286Z,89.28
2018-09-14T05:07:55.336Z,89.25
2018-09-14T05:10:22.289Z,90.39
2018-09-14T05:12:49.210Z,90.14
2018-09-14T05:15:16.148Z,90.07
2018-09-14T05:17:43.111Z,91.31
2018-09-14T05:20:10.068Z,91.00
2018-09-14T05:22:37.049Z,91.06
2018-09-14T05:25:03.999Z,90.66
2018-09-14T05:27:30.834Z,91.31
2018-09-14T05:29:57.812Z,90.31
2018-09-14T05:32:24.772Z,90.11
2018-09-14T05:34:51.648Z,90.67
2018-09-14T05:37:18.563Z,90.49
2018-09-14T05:39:45.871Z,89.58
2018-09-14T05:42:12.800Z,89.12
2018-09-14T05:44:39.747Z,90.37
2018-09-14T05:47:07.095Z,90.14
2018-09-14T05:49:33.938Z,89.70
2018-09-14T05:52:00.843Z,89.75
2018-09-14T05:54:27.798Z,89.23
2018-09-14T05:56:54.856Z,89.83
2018-09-14T05:59:21.747Z,89.33
2018-09-14T06:01:48.663Z,88.57
2018-09-14T06:04:15.608Z,88.67
2018-09-14T06:06:42.641Z,88.91
2018-09-14T06:09:11.078Z,88.66
2018-09-14T06:11:37.919Z,88.37
2018-09-14T06:14:04.880Z,88.85
2018-09-14T06:16:31.827Z,88.21
2018-09-14T06:18:58.779Z,88.77
2018-09-14T06:21:25.744Z,88.13
2018-09-14T06:23:52.743Z,88.52
2018-09-14T06:26:19.747Z,87.43
2018-09-14T06:28:47.271Z,86.81
2018-09-14T06:31:14.204Z,87.14
2018-09-14T06:33:41.175Z,87.45
2018-09-14T06:36:08.231Z,87.32
2018-09-14T06:38:35.204Z,88.41
2018-09-14T06:41:02.141Z,87.85
2018-09-14T06:43:29.111Z,87.34
2018-09-14T06:45:56.090Z,87.75
2018-09-14T06:48:22.992Z,88.31
2018-09-14T06:50:49.954Z,86.55
2018-09-14T06:53:17.009Z,86.31
2018-09-14T06:55:43.906Z,86.54
2018-09-14T06:58:10.856Z,86.07
2018-09-14T07:00:37.783Z,86.72
2018-09-14T07:03:04.745Z,86.42
2018-09-14T07:05:31.744Z,86.57
2018-09-14T07:07:58.611Z,86.00
2018-09-14T07:10:25.515Z,85.03
2018-09-14T07:12:54.389Z,85.19
2018-09-14T07:15:21.595Z,85.53
2018-09-14T07:17:48.531Z,85.94
2018-09-14T07:20:15.493Z,85.57
2018-09-14T07:22:42.451Z,85.47
2018-09-14T07:25:09.440Z,85.68
2018-09-14T07:27:36.376Z,84.59
2018-09-14T07:30:03.683Z,85.70
2018-09-14T07:32:30.595Z,84.84
2018-09-14T07:34:57.534Z,84.28
2018-09-14T07:37:24.431Z,85.76
2018-09-14T07:39:51.375Z,85.42
2018-09-14T07:42:18.361Z,84.47
2018-09-14T07:44:45.272Z,85.30
2018-09-14T07:47:12.222Z,84.87
2018-09-14T07:49:39.260Z,84.80
2018-09-14T07:52:06.350Z,84.80
2018-09-14T07:54:33.343Z,84.20
2018-09-14T07:57:01.289Z,84.55
2018-09-14T07:59:28.256Z,83.70
2018-09-14T08:01:55.268Z,84.87
2018-09-14T08:04:22.163Z,84.25
2018-09-14T08:06:49.123Z,84.12
2018-09-14T08:09:15.995Z,84.30
2018-09-14T08:11:42.980Z,83.19
2018-09-14T08:14:10.607Z,83.19
2018-09-14T08:16:37.788Z,82.64
2018-09-14T08:19:05.120Z,82.93
2018-09-14T08:21:32.125Z,82.54
2018-09-14T08:23:59.057Z,81.36
2018-09-14T08:26:26.005Z,81.47
2018-09-14T08:28:52.871Z,80.17
2018-09-14T08:31:19.731Z,80.14
2018-09-14T08:33:46.683Z,80.75
2018-09-14T08:36:13.735Z,79.90
2018-09-14T08:38:40.594Z,80.22
2018-09-14T08:41:07.547Z,80.19
2018-09-14T08:43:34.528Z,78.28
2018-09-14T08:46:01.499Z,77.57
2018-09-14T08:48:28.404Z,76.50
2018-09-14T08:50:55.319Z,78.05
2018-09-14T08:53:22.243Z,77.60
2018-09-14T08:55:49.236Z,76.62
2018-09-14T08:58:16.251Z,77.44
2018-09-14T09:00:43.154Z,75.42
2018-09-14T09:03:10.055Z,75.85
2018-09-14T09:05:37.018Z,76.43
2018-09-14T09:08:04.004Z,77.07
2018-09-14T09:10:31.814Z,76.53
2018-09-14T09:12:58.711Z,76.82
2018-09-14T09:15:25.663Z,76.19
2018-09-14T09:17:52.673Z,75.63
2018-09-14T09:20:19.575Z,76.04
2018-09-14T09:22:46.550Z,74.16
2018-09-14T09:25:13.505Z,75.56
2018-09-14T09:27:40.459Z,74.61
2018-09-14T09:30:07.437Z,74.67
2018-09-14T09:32:34.292Z,74.01
2018-09-14T09:35:01.295Z,72.76
2018-09-14T09:37:28.211Z,73.83
2018-09-14T09:39:55.143Z,72.51
2018-09-14T09:42:22.016Z,71.58
2018-09-14T09:44:48.966Z,72.62
2018-09-14T09:47:15.836Z,71.68
2018-09-14T09:49:42.788Z,71.72
2018-09-14T09:52:09.770Z,71.85
2018-09-14T09:54:36.690Z,72.85
2018-09-14T09:57:03.683Z,70.75
2018-09-14T09:59:30.599Z,70.30
2018-09-14T10:02:03.380Z,68.08
2018-09-14T10:04:55.831Z,68.53
2018-09-14T10:07:25.029Z,70.04
2018-09-14T10:09:51.857Z,69.62
2018-09-14T10:12:18.851Z,67.92
2018-09-14T10:14:45.819Z,68.00
2018-09-14T10:17:12.788Z,68.35
2018-09-14T10:19:39.730Z,66.92
2018-09-14T10:22:06.709Z,68.65
2018-09-14T10:24:33.667Z,67.37
2018-09-14T10:27:00.648Z,66.91
2018-09-14T10:29:27.563Z,66.53
2018-09-14T10:31:54.523Z,64.18
2018-09-14T10:34:21.387Z,65.65
2018-09-14T10:36:48.283Z,65.56
2018-09-14T10:39:15.217Z,67.18
2018-09-14T10:41:42.160Z,65.66
2018-09-14T10:44:09.027Z,65.28
2018-09-14T10:46:35.887Z,65.71
2018-09-14T10:49:02.842Z,67.39
2018-09-14T10:51:29.803Z,66.07
2018-09-14T10:53:56.763Z,66.77
2018-09-14T10:56:23.712Z,68.11
2018-09-14T10:58:50.609Z,67.35
2018-09-14T11:01:17.503Z,66.76
2018-09-14T11:03:44.717Z,67.31
2018-09-14T11:06:12.455Z,67.87
2018-09-14T11:08:39.395Z,65.62
2018-09-14T11:11:06.368Z,67.22
2018-09-14T11:13:33.313Z,67.23
2018-09-14T11:16:00.280Z,66.86
2018-09-14T11:18:27.447Z,65.76
2018-09-14T11:20:54.340Z,66.56
2018-09-14T11:23:21.323Z,66.02
2018-09-14T11:25:48.259Z,65.08
2018-09-14T11:28:15.195Z,65.70
2018-09-14T11:30:42.221Z,65.07
2018-09-14T11:33:09.207Z,64.18
2018-09-14T11:35:36.141Z,61.14
2018-09-14T11:38:03.229Z,63.82
2018-09-14T11:40:30.083Z,65.16
2018-09-14T11:42:57.164Z,64.96
2018-09-14T11:45:24.179Z,62.77
2018-09-14T11:47:51.064Z,63.22
2018-09-14T11:50:17.982Z,63.04
2018-09-14T11:52:44.834Z,63.16
2018-09-14T11:55:11.810Z,62.97
2018-09-14T11:57:38.876Z,63.32
2018-09-14T12:00:05.762Z,63.77
2018-09-14T12:02:32.646Z,63.34
2018-09-14T12:04:59.534Z,61.93
2018-09-14T12:07:26.492Z,59.93
2018-09-14T12:09:53.496Z,60.41
2018-09-14T12:12:20.372Z,60.53
2018-09-14T12:14:47.260Z,61.23
2018-09-14T12:17:14.264Z,60.47
2018-09-14T12:19:41.196Z,60.79
2018-09-14T12:22:08.224Z,60.19
2018-09-14T12:24:35.080Z,59.29
2018-09-14T12:27:02.040Z,61.28
2018-09-14T12:29:29.007Z,60.20
2018-09-14T12:31:55.967Z,59.77
2018-09-14T12:34:22.907Z,61.89
2018-09-14T12:36:49.871Z,59.63
2018-09-14T12:39:16.831Z,59.87
2018-09-14T12:41:43.803Z,58.43
2018-09-14T12:44:10.672Z,57.09
2018-09-14T12:46:37.588Z,57.05
2018-09-14T12:49:04.556Z,59.09
2018-09-14T12:51:32.342Z,62.27
2018-09-14T12:53:59.220Z,64.03
2018-09-14T12:56:26.206Z,63.21
2018-09-14T12:58:53.107Z,62.34
2018-09-14T13:01:20.107Z,60.16
2018-09-14T13:03:47.143Z,61.14
2018-09-14T13:06:14.116Z,60.89
2018-09-14T13:08:41.053Z,60.73
2018-09-14T13:11:07.996Z,60.85
2018-09-14T13:13:34.947Z,61.67
2018-09-14T13:16:02.823Z,62.44
2018-09-14T13:18:29.810Z,63.33
2018-09-14T13:20:56.739Z,62.81
2018-09-14T13:23:23.707Z,63.16
2018-09-14T13:25:50.701Z,63.06
2018-09-14T13:28:17.615Z,63.00
2018-09-14T13:30:44.624Z,62.00
2018-09-14T13:33:11.531Z,62.76
2018-09-14T13:35:38.516Z,59.86
2018-09-14T13:38:05.451Z,60.34
2018-09-14T13:40:32.425Z,59.44
2018-09-14T13:42:59.397Z,60.56
2018-09-14T13:45:26.328Z,60.98
2018-09-14T13:47:53.359Z,59.07
2018-09-14T13:50:20.244Z,59.88
2018-09-14T13:52:47.291Z,58.70
2018-09-14T13:55:14.155Z,58.29
2018-09-14T13:57:41.115Z,58.17
2018-09-14T14:00:08.063Z,56.84
2018-09-14T14:02:35.018Z,56.76
2018-09-14T14:05:02.030Z,56.75
2018-09-14T14:07:28.928Z,56.20
2018-09-14T14:09:55.888Z,57.08
2018-09-14T14:12:22.848Z,56.50
2018-09-14T14:14:49.799Z,56.86
2018-09-14T14:17:16.872Z,55.59
2018-09-14T14:19:43.667Z,58.17
2018-09-14T14:22:10.600Z,57.51
2018-09-14T14:24:37.481Z,56.47
2018-09-14T14:27:04.401Z,57.79
2018-09-14T14:29:31.260Z,57.56
2018-09-14T14:31:58.195Z,57.33
2018-09-14T14:34:25.243Z,58.10
2018-09-14T14:36:52.115Z,58.15
2018-09-14T14:39:19.088Z,57.76
2018-09-14T14:41:45.960Z,58.61
2018-09-14T14:44:12.912Z,59.09
2018-09-14T14:46:39.875Z,59.18
2018-09-14T14:49:06.832Z,58.83
2018-09-14T14:51:33.687Z,58.89
2018-09-14T14:54:00.610Z,59.56
2018-09-14T14:56:27.682Z,58.15
2018-09-14T14:58:54.630Z,57.64
2018-09-14T15:01:21.807Z,56.91
2018-09-14T15:03:48.743Z,57.17
2018-09-14T15:06:15.705Z,58.71
2018-09-14T15:08:42.678Z,57.70
2018-09-14T15:11:09.671Z,59.49
2018-09-14T15:13:36.564Z,57.36
2018-09-14T15:16:03.435Z,57.45
2018-09-14T15:18:30.415Z,57.16
2018-09-14T15:20:57.368Z,56.63
2018-09-14T15:23:24.224Z,56.96
2018-09-14T15:25:51.184Z,57.40
2018-09-14T15:28:18.247Z,58.52
2018-09-14T15:30:46.309Z,57.51
2018-09-14T15:33:12.955Z,58.48
2018-09-14T15:35:39.906Z,57.51
2018-09-14T15:38:06.767Z,57.07
2018-09-14T15:40:33.755Z,58.07
2018-09-14T15:43:00.693Z,57.46
2018-09-14T15:45:27.668Z,59.09
2018-09-14T15:47:54.627Z,59.58
2018-09-14T15:50:21.584Z,58.27
2018-09-14T15:52:48.574Z,57.28
2018-09-14T15:55:15.504Z,57.82
2018-09-14T15:57:42.550Z,58.00
2018-09-14T16:00:09.435Z,56.48
2018-09-14T16:02:36.399Z,55.18
2018-09-14T16:05:03.494Z,55.02
2018-09-14T16:07:30.419Z,56.18
2018-09-14T16:09:57.324Z,57.60
2018-09-14T16:12:24.327Z,57.26
2018-09-14T16:14:51.347Z,57.90
2018-09-14T16:17:18.223Z,58.46
2018-09-14T16:19:45.223Z,58.06
2018-09-14T16:22:12.179Z,59.67
2018-09-14T16:24:39.084Z,58.97
2018-09-14T16:27:06.387Z,59.00
2018-09-14T16:29:33.291Z,58.42
2018-09-14T16:32:00.168Z,59.20
2018-09-14T16:34:27.120Z,60.07
2018-09-14T16:36:54.084Z,59.78
2018-09-14T16:39:21.019Z,60.11
2018-09-14T16:41:47.900Z,60.96
2018-09-14T16:44:18.624Z,60.27
2018-09-14T16:46:45.581Z,60.89
2018-09-14T16:49:12.835Z,60.45
2018-09-14T16:51:39.886Z,62.24
2018-09-14T16:54:06.695Z,61.60
2018-09-14T16:56:33.627Z,63.41
2018-09-14T16:59:00.651Z,62.47
2018-09-14T17:01:27.622Z,62.77
2018-09-14T17:03:54.778Z,61.72
2018-09-14T17:06:21.800Z,62.09
2018-09-14T17:08:48.755Z,62.52
2018-09-14T17:11:15.687Z,63.55
2018-09-14T17:13:42.901Z,62.13
2018-09-14T17:16:09.768Z,63.13
2018-09-14T17:18:36.728Z,62.44
2018-09-14T17:21:03.750Z,64.68
2018-09-14T17:23:30.639Z,64.62
2018-09-14T17:25:57.780Z,64.81
2018-09-14T17:28:24.719Z,64.93
2018-09-14T17:30:51.644Z,65.83
2018-09-14T17:33:18.601Z,63.94
2018-09-14T17:35:45.551Z,65.51
2018-09-14T17:38:12.525Z,65.15
2018-09-14T17:40:39.484Z,65.47
2018-09-14T17:43:06.504Z,64.72
2018-09-14T17:45:33.471Z,65.12
2018-09-14T17:48:00.344Z,66.40
2018-09-14T17:50:27.283Z,67.04
2018-09-14T17:52:54.258Z,65.95
2018-09-14T17:55:21.255Z,66.30
2018-09-14T17:57:48.248Z,67.30
2018-09-14T18:00:15.356Z,67.58
2018-09-14T18:02:42.192Z,66.97
2018-09-14T18:05:09.135Z,67.04
2018-09-14T18:07:36.116Z,67.06
2018-09-14T18:10:03.092Z,67.27
2018-09-14T18:12:30.090Z,67.35
2018-09-14T18:14:57.066Z,65.73
2018-09-14T18:17:24.037Z,68.02
2018-09-14T18:19:51.055Z,68.37
2018-09-14T18:22:18.186Z,68.32
2018-09-14T18:24:45.132Z,68.95
2018-09-14T18:27:12.583Z,69.34
2018-09-14T18:29:39.564Z,69.36
2018-09-14T18:32:06.679Z,70.69
2018-09-14T18:34:33.685Z,70.21
2018-09-14T18:37:00.911Z,70.62
2018-09-14T18:39:27.918Z,70.88
2018-09-14T18:41:54.911Z,71.82
2018-09-14T18:44:22.279Z,71.72
2018-09-14T18:46:49.400Z,71.41
2018-09-14T18:49:16.391Z,71.11
2018-09-14T18:51:43.389Z,71.84
2018-09-14T18:54:10.483Z,72.75
2018-09-14T18:56:37.484Z,73.05
2018-09-14T18:59:04.640Z,72.74
2018-09-14T19:01:31.720Z,73.16
2018-09-14T19:03:58.735Z,73.30
2018-09-14T19:06:25.784Z,72.98
2018-09-14T19:08:52.771Z,74.05
2018-09-14T19:11:19.879Z,73.06
2018-09-14T19:13:46.911Z,73.76
2018-09-14T19:16:14.000Z,73.07
2018-09-14T19:18:41.051Z,73.54
2018-09-14T19:21:08.244Z,73.22
2018-09-14T19:23:35.357Z,73.45
2018-09-14T19:26:02.420Z,73.92
2018-09-14T19:28:29.471Z,74.36
2018-09-14T19:30:56.530Z,73.57
2018-09-14T19:33:23.591Z,73.17
2018-09-14T19:35:50.696Z,73.61
2018-09-14T19:38:18.589Z,73.60
2018-09-14T19:40:45.668Z,74.29
2018-09-14T19:43:12.851Z,74.02
2018-09-14T19:45:39.939Z,74.49
2018-09-14T19:48:06.988Z,73.72
2018-09-14T19:50:34.064Z,73.89
2018-09-14T19:53:01.143Z,74.02
2018-09-14T19:55:28.166Z,74.11
2018-09-14T19:57:55.203Z,73.81
2018-09-14T20:00:22.279Z,74.09
2018-09-14T20:02:49.321Z,74.08
2018-09-14T20:05:16.367Z,74.23
2018-09-14T20:07:43.384Z,75.81
2018-09-14T20:10:10.371Z,75.57
2018-09-14T20:12:37.308Z,75.90
2018-09-14T20:15:05.259Z,76.19
2018-09-14T20:17:32.290Z,74.64
2018-09-14T20:19:59.165Z,76.00
2018-09-14T20:22:26.175Z,75.74
2018-09-14T20:24:53.109Z,76.02
2018-09-14T20:27:20.088Z,75.56
2018-09-14T20:29:47.061Z,78.30
2018-09-14T20:32:13.972Z,79.16
2018-09-14T20:34:40.916Z,79.78
2018-09-14T20:37:07.933Z,80.40
2018-09-14T20:39:34.824Z,80.49
2018-09-14T20:42:01.808Z,80.71
2018-09-14T20:44:28.780Z,79.75
2018-09-14T20:46:55.783Z,80.44
2018-09-14T20:49:22.940Z,81.36
2018-09-14T20:51:49.863Z,81.21
2018-09-14T20:54:16.759Z,81.47
2018-09-14T20:56:43.776Z,81.26
2018-09-14T20:59:10.707Z,80.91
2018-09-14T21:01:37.651Z,81.52
2018-09-14T21:04:04.670Z,81.51
2018-09-14T21:06:31.563Z,81.16
2018-09-14T21:08:58.573Z,79.88
2018-09-14T21:11:25.511Z,79.46
2018-09-14T21:13:52.460Z,77.94
2018-09-14T21:16:19.391Z,76.30
2018-09-14T21:18:46.360Z,78.24
2018-09-14T21:21:13.319Z,78.80
2018-09-14T21:23:40.305Z,77.69
2018-09-14T21:26:07.218Z,79.38
2018-09-14T21:28:34.167Z,79.26
2018-09-14T21:31:01.127Z,80.58
2018-09-14T21:33:27.988Z,80.40
2018-09-14T21:35:54.968Z,80.03
2018-09-14T21:38:21.939Z,81.29
2018-09-14T21:40:48.855Z,81.04
2018-09-14T21:43:15.823Z,81.39
2018-09-14T21:45:42.813Z,81.75
2018-09-14T21:48:09.711Z,80.43
2018-09-14T21:50:36.663Z,79.55
2018-09-14T21:53:03.551Z,77.34
2018-09-14T21:55:30.521Z,79.18
2018-09-14T21:57:57.482Z,78.61
2018-09-14T22:00:31.106Z,79.76
2018-09-14T22:02:58.031Z,79.61
2018-09-14T22:05:24.999Z,80.43
2018-09-14T22:07:51.947Z,79.61
2018-09-14T22:10:18.811Z,79.77
2018-09-14T22:12:45.755Z,80.33
2018-09-14T22:15:12.756Z,80.22
2018-09-14T22:17:39.680Z,80.78
2018-09-14T22:20:06.531Z,81.16
2018-09-14T22:22:33.487Z,80.79
2018-09-14T22:25:00.443Z,80.90
2018-09-14T22:27:27.448Z,80.57
2018-09-14T22:29:54.319Z,80.19
2018-09-14T22:32:21.224Z,80.46
2018-09-14T22:34:48.359Z,80.83
2018-09-14T22:37:15.275Z,80.57
2018-09-14T22:39:42.291Z,80.93
2018-09-14T22:42:09.228Z,80.79
2018-09-14T22:44:36.141Z,80.27
2018-09-14T22:47:03.091Z,80.73
2018-09-14T22:49:30.087Z,79.69
2018-09-14T22:51:57.047Z,79.82
2018-09-14T22:54:24.068Z,79.80
2018-09-14T22:56:51.003Z,78.79
2018-09-14T22:59:17.971Z,79.40
2018-09-14T23:01:44.924Z,79.66
2018-09-14T23:04:11.779Z,78.94
2018-09-14T23:06:38.719Z,79.89
2018-09-14T23:09:06.558Z,78.63
2018-09-14T23:11:33.600Z,78.42
2018-09-14T23:14:00.510Z,77.96
2018-09-14T23:16:27.366Z,78.04
2018-09-14T23:18:54.331Z,77.72
2018-09-14T23:21:21.290Z,77.88
2018-09-14T23:23:48.254Z,77.67
2018-09-14T23:26:18.354Z,77.69
2018-09-14T23:28:45.226Z,77.24
2018-09-14T23:31:12.198Z,77.92
2018-09-14T23:33:39.153Z,77.66
2018-09-14T23:36:06.106Z,76.79
2018-09-14T23:38:33.103Z,76.11
2018-09-14T23:41:00.023Z,76.52
2018-09-14T23:43:27.000Z,75.42
2018-09-14T23:45:53.936Z,75.58
2018-09-14T23:48:20.927Z,75.03
2018-09-14T23:50:47.842Z,75.56
2018-09-14T23:53:14.837Z,74.66
2018-09-14T23:55:41.791Z,74.71
2018-09-14T23:58:08.754Z,74.46
